Time;durP1;ratioP1;P1;durP2;ratioP2;P2;SDS_P1;SDS_P2;PMS_P1;PMS_P2;Temp;Humidity;BMP_temperature;BMP_pressure;BME280_temperature;BME280_humidity;BME280_pressure;Samples;Min_cycle;Max_cycle;Signal;HPM_P1;HPM_P2
2021/11/13 00:01:02;;;;;;;125.10;86.20;;;;;;;5.04;77.90;100732.71;107964;1289;22596;-78
2021/11/13 00:03:31;;;;;;;130.50;87.50;;;;;;;5.04;77.92;100727.28;108183;1291;23602;-77
2021/11/13 00:06:01;;;;;;;113.10;81.60;;;;;;;5.04;77.99;100719.98;108120;1285;22142;-77
2021/11/13 00:08:31;;;;;;;112.60;82.20;;;;;;;5.06;78.06;100718.05;108062;1286;22103;-77
2021/11/13 00:11:05;;;;;;;105.50;77.90;;;;;;;5.06;77.90;100712.26;108352;1283;21996;-78
2021/11/13 00:13:34;;;;;;;108.50;77.90;;;;;;;5.06;77.95;100708.29;108640;1283;21995;-78
2021/11/13 00:16:08;;;;;;;110.50;79.10;;;;;;;5.06;78.10;100701.64;108580;1283;22029;-77
2021/11/13 00:18:38;;;;;;;113.10;81.40;;;;;;;5.10;78.10;100697.47;109098;1282;21980;-78
2021/11/13 00:21:07;;;;;;;116.90;80.20;;;;;;;5.13;78.05;100697.21;107825;1291;22053;-78
2021/11/13 00:23:37;;;;;;;114.80;79.80;;;;;;;5.13;77.90;100693.05;108158;1291;22073;-79
2021/11/13 00:26:09;;;;;;;116.40;82.20;;;;;;;5.10;77.93;100691.88;107866;1291;23055;-77
2021/11/13 00:28:38;;;;;;;119.50;83.70;;;;;;;5.08;77.95;100695.52;107725;1294;22775;-79
2021/11/13 00:31:07;;;;;;;111.20;80.20;;;;;;;5.08;77.98;100697.30;107643;1293;22123;-77
2021/11/13 00:33:36;;;;;;;119.40;83.20;;;;;;;5.05;77.80;100699.46;107959;1288;21995;-78
2021/11/13 00:36:06;;;;;;;119.40;83.50;;;;;;;5.03;77.95;100700.46;108114;1288;23735;-78
2021/11/13 00:38:35;;;;;;;117.00;83.20;;;;;;;5.06;78.12;100693.60;108220;1288;23122;-78
2021/11/13 00:41:04;;;;;;;112.80;78.70;;;;;;;5.08;78.17;100684.52;107743;1294;23074;-79
2021/11/13 00:43:33;;;;;;;112.80;79.40;;;;;;;5.06;77.99;100684.55;107904;1292;22017;-78
2021/11/13 00:46:04;;;;;;;118.60;81.60;;;;;;;5.04;78.01;100688.36;107749;1289;23090;-78
2021/11/13 00:48:33;;;;;;;117.60;83.40;;;;;;;5.04;78.06;100683.63;107922;1289;22085;-77
2021/11/13 00:51:04;;;;;;;112.80;78.30;;;;;;;5.03;78.07;100692.08;108036;1289;22031;-79
2021/11/13 00:53:33;;;;;;;114.40;82.80;;;;;;;5.04;78.19;100711.08;107800;1291;22010;-79
2021/11/13 00:56:02;;;;;;;115.40;80.60;;;;;;;5.04;78.08;100701.63;107720;1287;22003;-78
2021/11/13 00:58:33;;;;;;;112.10;80.00;;;;;;;5.03;78.13;100688.61;107839;1283;22168;-80
2021/11/13 01:01:05;;;;;;;114.80;80.10;;;;;;;5.02;78.09;100710.84;108308;1285;22083;-79
2021/11/13 01:03:35;;;;;;;114.60;79.30;;;;;;;5.00;78.06;100711.77;108593;1277;22028;-79
2021/11/13 01:06:08;;;;;;;115.20;81.30;;;;;;;5.00;78.29;100687.83;108631;1277;21982;-77
2021/11/13 01:08:40;;;;;;;111.10;79.00;;;;;;;5.03;78.41;100692.30;108464;1283;23612;-78
2021/11/13 01:11:09;;;;;;;116.40;80.00;;;;;;;5.05;78.43;100694.55;108080;1289;22050;-78
2021/11/13 01:13:39;;;;;;;113.40;79.50;;;;;;;5.07;78.48;100695.50;107787;1291;23794;-77
2021/11/13 01:16:08;;;;;;;114.50;82.60;;;;;;;5.07;78.50;100685.83;107814;1291;22021;-77
2021/11/13 01:18:39;;;;;;;114.40;79.10;;;;;;;5.10;78.50;100672.50;107875;1291;22001;-78
2021/11/13 01:21:09;;;;;;;115.60;80.30;;;;;;;5.12;78.43;100657.38;107485;1298;23624;-78
2021/11/13 01:23:39;;;;;;;111.10;79.20;;;;;;;5.12;78.39;100660.32;107249;1298;22021;-77
2021/11/13 01:26:09;;;;;;;114.90;79.20;;;;;;;5.13;78.36;100669.65;107229;1298;22721;-77
2021/11/13 01:28:38;;;;;;;110.60;78.60;;;;;;;5.14;78.46;100684.88;107387;1294;22125;-78
2021/11/13 01:31:07;;;;;;;110.00;79.10;;;;;;;5.19;78.54;100695.36;107669;1291;22011;-77
2021/11/13 01:33:37;;;;;;;109.60;78.00;;;;;;;5.23;78.51;100692.77;108151;1285;22019;-77
2021/11/13 01:36:07;;;;;;;116.40;77.20;;;;;;;5.23;78.39;100685.27;108332;1284;22264;-77
2021/11/13 01:38:38;;;;;;;115.30;80.50;;;;;;;5.25;78.42;100674.76;108096;1285;23046;-78
2021/11/13 01:41:09;;;;;;;117.20;79.70;;;;;;;5.25;78.29;100665.05;108352;1285;22027;-77
2021/11/13 01:43:41;;;;;;;108.30;77.50;;;;;;;5.26;78.41;100658.45;108385;1285;21999;-78
2021/11/13 01:46:11;;;;;;;104.60;74.70;;;;;;;5.28;78.49;100650.41;108412;1285;23663;-77
2021/11/13 01:48:40;;;;;;;110.30;79.50;;;;;;;5.28;78.37;100650.27;108391;1285;23011;-78
2021/11/13 01:51:22;;;;;;;110.40;78.30;;;;;;;5.29;78.41;100658.77;108223;1287;22089;-78
2021/11/13 01:54:00;;;;;;;122.70;77.20;;;;;;;5.30;78.37;100657.95;107825;1294;22013;-77
2021/11/13 01:56:29;;;;;;;108.10;76.60;;;;;;;5.30;78.31;100651.69;107212;1295;24421;-77
2021/11/13 01:59:05;;;;;;;109.50;76.40;;;;;;;5.29;78.44;100650.86;107726;1295;22522;-78
2021/11/13 02:01:36;;;;;;;110.00;76.60;;;;;;;5.30;78.39;100648.33;107620;1294;21992;-78
2021/11/13 02:04:07;;;;;;;112.80;81.10;;;;;;;5.30;78.36;100639.95;107776;1292;23007;-77
2021/11/13 02:06:36;;;;;;;118.60;78.90;;;;;;;5.31;78.41;100643.58;107598;1293;22005;-77
2021/11/13 02:09:08;;;;;;;110.90;76.70;;;;;;;5.33;78.35;100645.17;107098;1296;22004;-77
2021/11/13 02:11:38;;;;;;;;;;;;;;;5.32;78.26;100635.44;107691;1292;22085;-77
2021/11/13 02:14:10;;;;;;;117.20;78.50;;;;;;;5.25;78.35;100630.98;107694;1290;22785;-77
2021/11/13 02:16:39;;;;;;;120.00;81.40;;;;;;;5.23;78.38;100627.25;108054;1289;22037;-77
2021/11/13 02:19:08;;;;;;;113.00;76.90;;;;;;;5.23;78.33;100629.92;107555;1297;22004;-77
2021/11/13 02:21:38;;;;;;;110.80;78.40;;;;;;;5.23;78.45;100631.15;107537;1297;22119;-77
2021/11/13 02:24:07;;;;;;;110.60;78.20;;;;;;;5.21;78.32;100622.19;107505;1297;23676;-77
2021/11/13 02:26:38;;;;;;;111.70;76.90;;;;;;;5.16;78.35;100621.16;107459;1291;22030;-78
2021/11/13 02:29:08;;;;;;;107.70;76.40;;;;;;;5.16;78.54;100621.35;108056;1289;22051;-78
2021/11/13 02:31:40;;;;;;;110.50;74.50;;;;;;;5.15;78.47;100611.52;108093;1283;21969;-77
2021/11/13 02:34:11;;;;;;;;;;;;;;;5.10;78.40;100611.38;108402;1283;23052;-77
2021/11/13 02:36:42;;;;;;;110.40;76.20;;;;;;;5.00;78.65;100614.20;108466;1279;23694;-78
2021/11/13 02:39:13;;;;;;;111.50;75.80;;;;;;;4.96;78.84;100608.15;108655;1277;23031;-78
2021/11/13 02:41:44;;;;;;;104.80;73.80;;;;;;;4.96;78.88;100608.21;108220;1284;22559;-77
2021/11/13 02:44:16;;;;;;;113.60;78.20;;;;;;;4.95;78.96;100609.83;108227;1285;21985;-77
2021/11/13 02:46:46;;;;;;;116.40;78.90;;;;;;;4.94;79.02;100607.15;108030;1291;22004;-78
2021/11/13 02:49:15;;;;;;;107.60;77.20;;;;;;;4.94;79.05;100608.55;107831;1292;22460;-78
2021/11/13 02:51:46;;;;;;;104.50;74.30;;;;;;;4.94;79.08;100608.34;108037;1291;23473;-78
2021/11/13 02:54:16;;;;;;;105.70;73.10;;;;;;;4.94;79.18;100613.09;108008;1292;22061;-78
2021/11/13 02:56:47;;;;;;;108.20;74.20;;;;;;;4.95;79.18;100610.92;107811;1291;22006;-78
2021/11/13 02:59:16;;;;;;;107.40;73.10;;;;;;;4.96;79.26;100611.85;108092;1277;23071;-77
2021/11/13 03:01:45;;;;;;;108.20;73.10;;;;;;;4.95;79.13;100616.13;108400;1283;22000;-77
2021/11/13 03:04:15;;;;;;;116.40;76.60;;;;;;;4.94;79.21;100614.42;108153;1283;22680;-77
2021/11/13 03:06:44;;;;;;;108.60;75.10;;;;;;;4.96;79.31;100614.31;108313;1283;21989;-79
2021/11/13 03:09:14;;;;;;;109.40;74.50;;;;;;;4.98;79.29;100614.67;108105;1289;23846;-77
2021/11/13 03:11:43;;;;;;;105.90;73.50;;;;;;;5.00;79.38;100614.02;108200;1288;22007;-77
2021/11/13 03:14:16;;;;;;;111.00;76.10;;;;;;;5.02;79.35;100614.01;108071;1287;21993;-77
2021/11/13 03:16:45;;;;;;;112.50;74.70;;;;;;;5.02;79.24;100609.14;108235;1288;22449;-77
2021/11/13 03:19:14;;;;;;;111.70;74.90;;;;;;;5.02;79.25;100603.88;108087;1288;22002;-77
2021/11/13 03:21:44;;;;;;;109.40;74.10;;;;;;;5.02;79.25;100602.66;108241;1283;22028;-78
2021/11/13 03:24:13;;;;;;;109.30;72.30;;;;;;;5.02;79.18;100601.80;108347;1283;22092;-78
2021/11/13 03:26:43;;;;;;;100.80;71.10;;;;;;;5.00;79.21;100600.55;108458;1277;21974;-77
2021/11/13 03:29:23;;;;;;;102.20;70.70;;;;;;;4.99;79.27;100606.55;108879;1277;21999;-78
2021/11/13 03:31:55;;;;;;;111.30;76.10;;;;;;;4.97;79.23;100606.89;108601;1277;23023;-77
2021/11/13 03:34:24;;;;;;;105.80;71.30;;;;;;;4.98;79.34;100604.39;108668;1277;21985;-77
2021/11/13 03:36:55;;;;;;;103.70;70.70;;;;;;;5.01;79.43;100604.64;108860;1277;22023;-78
2021/11/13 03:39:24;;;;;;;104.70;72.30;;;;;;;5.06;79.51;100607.39;108796;1277;23040;-78
2021/11/13 03:41:53;;;;;;;107.40;71.70;;;;;;;5.10;79.42;100607.55;108716;1277;22769;-77
2021/11/13 03:44:22;;;;;;;112.90;73.50;;;;;;;5.13;79.44;100599.63;108759;1277;24433;-77
2021/11/13 03:46:51;;;;;;;110.50;74.70;;;;;;;5.14;79.25;100598.81;108747;1277;22390;-77
2021/11/13 03:49:21;;;;;;;108.40;72.50;;;;;;;5.14;79.12;100591.21;108791;1277;22319;-77
2021/11/13 03:51:51;;;;;;;105.60;71.10;;;;;;;5.12;79.11;100591.15;108792;1277;21980;-77
2021/11/13 03:54:20;;;;;;;114.70;74.70;;;;;;;5.11;78.95;100592.42;108520;1280;23128;-78
2021/11/13 03:56:49;;;;;;;109.70;70.30;;;;;;;5.10;78.98;100594.43;108835;1277;22787;-78
2021/11/13 03:59:18;;;;;;;105.30;69.20;;;;;;;5.09;78.89;100587.08;108384;1286;22047;-78
2021/11/13 04:01:47;;;;;;;110.40;73.50;;;;;;;5.04;78.75;100585.56;108381;1285;23123;-77
2021/11/13 04:04:17;;;;;;;105.30;69.10;;;;;;;4.97;78.79;100577.37;108396;1286;22034;-78
2021/11/13 04:06:49;;;;;;;107.20;69.90;;;;;;;4.93;78.87;100579.09;108410;1286;22121;-77
2021/11/13 04:09:18;;;;;;;110.90;71.00;;;;;;;4.91;78.93;100577.88;108036;1291;22762;-78
2021/11/13 04:11:47;;;;;;;102.60;66.70;;;;;;;4.88;78.94;100573.26;108020;1290;22028;-78
2021/11/13 04:14:16;;;;;;;104.90;69.00;;;;;;;4.85;78.99;100572.05;108027;1292;23141;-78
2021/11/13 04:16:45;;;;;;;106.30;69.10;;;;;;;4.84;78.99;100570.77;108023;1291;22010;-77
2021/11/13 04:19:14;;;;;;;101.60;67.60;;;;;;;4.85;79.07;100575.40;108018;1291;22035;-77
2021/11/13 04:21:43;;;;;;;103.20;67.60;;;;;;;4.85;78.98;100575.58;108078;1291;22002;-77
2021/11/13 04:24:12;;;;;;;101.50;66.50;;;;;;;4.82;79.04;100574.94;108216;1282;24311;-77
2021/11/13 04:26:42;;;;;;;99.00;64.20;;;;;;;4.77;79.04;100572.92;108452;1277;23576;-77
2021/11/13 04:29:11;;;;;;;102.50;66.30;;;;;;;4.72;79.07;100571.91;108642;1277;22025;-77
2021/11/13 04:31:40;;;;;;;98.50;63.90;;;;;;;4.69;79.05;100568.47;108212;1285;22471;-78
2021/11/13 04:34:14;;;;;;;101.70;65.10;;;;;;;4.69;79.17;100565.90;108247;1285;22045;-78
2021/11/13 04:36:46;;;;;;;103.70;64.50;;;;;;;4.66;79.06;100568.38;108281;1286;21996;-77
2021/11/13 04:39:15;;;;;;;111.10;66.20;;;;;;;4.63;79.19;100575.60;108395;1286;23010;-77
2021/11/13 04:41:45;;;;;;;96.90;63.40;;;;;;;4.61;79.23;100576.10;108433;1285;23056;-77
2021/11/13 04:44:14;;;;;;;99.80;67.20;;;;;;;4.61;79.27;100577.01;108257;1284;22117;-77
2021/11/13 04:46:43;;;;;;;97.50;64.60;;;;;;;4.58;79.25;100570.95;108383;1284;22312;-78
2021/11/13 04:49:13;;;;;;;93.90;60.90;;;;;;;4.54;79.24;100572.20;108222;1285;23594;-78
2021/11/13 04:51:42;;;;;;;93.50;62.20;;;;;;;4.51;79.31;100575.73;108430;1286;23225;-77
2021/11/13 04:54:11;;;;;;;91.50;60.00;;;;;;;4.49;79.33;100574.51;108180;1285;21987;-77
2021/11/13 04:56:40;;;;;;;87.90;59.40;;;;;;;4.47;79.38;100571.84;108518;1277;23031;-77
2021/11/13 04:59:09;;;;;;;93.10;61.30;;;;;;;4.48;79.54;100570.23;108447;1283;22019;-76
2021/11/13 05:01:38;;;;;;;85.30;58.60;;;;;;;4.52;79.59;100577.10;108455;1283;23114;-76
2021/11/13 05:04:07;;;;;;;90.40;59.60;;;;;;;4.52;79.39;100583.17;108483;1283;21996;-77
2021/11/13 05:06:36;;;;;;;82.20;56.80;;;;;;;4.50;79.37;100583.52;108453;1283;23165;-79
2021/11/13 05:09:05;;;;;;;84.40;58.30;;;;;;;4.45;79.24;100584.05;108336;1285;22014;-77
2021/11/13 05:11:35;;;;;;;85.90;58.60;;;;;;;4.46;79.50;100581.70;108424;1285;22054;-78
2021/11/13 05:14:05;;;;;;;83.30;58.50;;;;;;;4.48;79.54;100585.20;108438;1283;22489;-78
2021/11/13 05:16:34;;;;;;;82.60;53.60;;;;;;;4.50;79.49;100588.20;108498;1277;21976;-78
2021/11/13 05:19:08;;;;;;;90.20;57.60;;;;;;;4.47;79.30;100586.14;108465;1283;22005;-77
2021/11/13 05:21:39;;;;;;;;;;;;;;;4.39;79.21;100585.20;108521;1283;22042;-77
2021/11/13 05:24:08;;;;;;;81.50;53.90;;;;;;;4.27;79.47;100580.59;108512;1283;23685;-78
2021/11/13 05:26:38;;;;;;;80.90;52.80;;;;;;;4.26;79.57;100588.03;108379;1283;22052;-78
2021/11/13 05:29:07;;;;;;;79.70;54.80;;;;;;;4.28;79.70;100583.84;108491;1283;21995;-78
2021/11/13 05:31:36;;;;;;;71.20;52.00;;;;;;;4.27;79.71;100585.63;108467;1283;23725;-79
2021/11/13 05:34:05;;;;;;;81.90;54.40;;;;;;;4.27;79.66;100587.61;108520;1283;22000;-78
2021/11/13 05:36:34;;;;;;;80.50;53.10;;;;;;;4.25;79.70;100585.77;108413;1277;23563;-78
2021/11/13 05:39:03;;;;;;;85.80;56.90;;;;;;;4.24;79.68;100583.75;108852;1277;21997;-78
2021/11/13 05:41:32;;;;;;;81.70;53.70;;;;;;;4.25;79.73;100581.80;108789;1277;23695;-78
2021/11/13 05:44:04;;;;;;;76.90;50.70;;;;;;;4.26;79.73;100588.20;108908;1277;21977;-78
2021/11/13 05:46:35;;;;;;;84.20;54.00;;;;;;;4.25;79.75;100589.83;108552;1283;22789;-78
2021/11/13 05:49:05;;;;;;;83.60;54.20;;;;;;;4.23;79.74;100589.77;108430;1285;22206;-78
2021/11/13 05:51:36;;;;;;;74.70;53.60;;;;;;;4.20;79.83;100594.05;108117;1289;23666;-78
2021/11/13 05:54:07;;;;;;;78.70;51.90;;;;;;;4.19;79.83;100599.15;108348;1288;21990;-80
2021/11/13 05:56:55;;;;;;;76.40;52.70;;;;;;;4.18;79.79;100600.80;106690;1288;2315489;-81
2021/11/13 05:59:26;;;;;;;77.00;51.90;;;;;;;4.20;79.99;100604.14;108278;1288;23713;-78
2021/11/13 06:01:55;;;;;;;82.60;52.80;;;;;;;4.20;79.92;100603.95;108139;1288;23857;-78
2021/11/13 06:04:24;;;;;;;77.00;54.00;;;;;;;4.21;79.96;100603.70;108330;1283;23860;-78
2021/11/13 06:07:01;;;;;;;79.70;52.40;;;;;;;4.24;80.06;100606.10;108528;1283;24067;-77
2021/11/13 06:09:31;;;;;;;86.70;57.00;;;;;;;4.26;79.98;100605.99;108436;1277;22003;-77
2021/11/13 06:12:02;;;;;;;77.80;53.00;;;;;;;4.26;79.96;100611.88;108801;1277;21983;-78
2021/11/13 06:14:31;;;;;;;79.90;52.90;;;;;;;4.27;79.96;100615.80;108839;1277;23030;-78
2021/11/13 06:17:06;;;;;;;74.30;52.10;;;;;;;4.30;79.97;100617.02;108907;1277;21997;-78
2021/11/13 06:19:48;;;;;;;76.30;50.80;;;;;;;4.27;79.86;100618.98;108819;1277;22007;-78
2021/11/13 06:22:17;;;;;;;79.60;51.10;;;;;;;4.27;79.96;100621.95;109027;1277;23672;-77
2021/11/13 06:24:47;;;;;;;75.70;52.00;;;;;;;4.27;79.93;100626.29;108549;1283;22073;-78
2021/11/13 06:27:17;;;;;;;81.50;52.50;;;;;;;4.30;79.99;100628.88;108439;1283;22314;-79
2021/11/13 06:29:47;;;;;;;84.30;55.70;;;;;;;4.32;80.07;100629.20;108323;1283;23653;-78
2021/11/13 06:32:17;;;;;;;81.50;54.00;;;;;;;4.35;80.15;100629.98;108240;1288;22151;-78
2021/11/13 06:34:46;;;;;;;83.60;53.20;;;;;;;4.39;80.14;100630.77;108147;1288;23588;-78
2021/11/13 06:37:15;;;;;;;78.50;53.90;;;;;;;4.41;80.03;100630.43;108309;1288;23732;-78
2021/11/13 06:39:44;;;;;;;81.40;54.90;;;;;;;4.47;80.32;100633.98;108171;1287;22050;-78
2021/11/13 06:42:13;;;;;;;83.30;53.80;;;;;;;4.55;80.44;100636.24;107847;1288;22001;-77
2021/11/13 06:44:42;;;;;;;81.10;54.10;;;;;;;4.61;80.22;100638.77;108132;1289;22444;-77
2021/11/13 06:47:12;;;;;;;82.10;54.20;;;;;;;4.64;80.10;100635.01;108076;1288;21968;-78
2021/11/13 06:49:42;;;;;;;77.30;54.30;;;;;;;4.69;80.13;100633.41;108120;1283;22102;-78
2021/11/13 06:52:15;;;;;;;84.30;56.10;;;;;;;4.75;80.02;100635.62;108519;1283;23684;-78
2021/11/13 06:54:43;;;;;;;78.60;54.10;;;;;;;4.80;79.93;100636.87;108549;1283;22043;-78
2021/11/13 06:57:13;;;;;;;78.50;56.30;;;;;;;4.83;79.77;100637.86;108607;1282;22066;-77
2021/11/13 06:59:42;;;;;;;80.50;55.80;;;;;;;4.86;79.69;100638.13;108603;1277;22005;-77
2021/11/13 07:02:11;;;;;;;82.60;56.40;;;;;;;4.87;79.50;100638.27;108806;1277;23576;-77
2021/11/13 07:04:40;;;;;;;81.30;54.10;;;;;;;4.87;79.42;100639.46;108744;1277;21972;-77
2021/11/13 07:07:10;;;;;;;81.80;54.80;;;;;;;4.88;79.25;100634.52;108808;1277;22966;-78
2021/11/13 07:09:39;;;;;;;81.90;57.20;;;;;;;4.88;79.13;100634.70;108833;1277;21986;-77
2021/11/13 07:12:08;;;;;;;74.10;52.30;;;;;;;4.85;79.03;100633.17;108776;1277;23040;-78
2021/11/13 07:14:38;;;;;;;79.80;53.10;;;;;;;4.84;79.05;100631.71;108928;1275;22400;-77
2021/11/13 07:17:08;;;;;;;80.10;54.00;;;;;;;4.87;79.22;100630.77;108734;1276;22062;-79
2021/11/13 07:19:38;;;;;;;86.90;63.40;;;;;;;4.92;79.29;100627.56;108812;1277;22850;-79
2021/11/13 07:22:07;;;;;;;101.80;77.00;;;;;;;4.98;79.30;100626.22;108549;1280;22013;-78
2021/11/13 07:24:41;;;;;;;83.90;57.30;;;;;;;5.03;79.24;100628.02;108729;1277;23606;-78
2021/11/13 07:27:12;;;;;;;105.00;70.10;;;;;;;5.07;79.06;100627.84;108780;1278;21966;-78
2021/11/13 07:29:45;;;;;;;94.20;59.50;;;;;;;5.06;78.72;100626.73;108628;1276;21986;-78
2021/11/13 07:32:15;;;;;;;92.90;57.20;;;;;;;5.01;78.46;100626.77;108563;1282;23051;-80
2021/11/13 07:34:45;;;;;;;87.80;58.10;;;;;;;4.98;78.48;100631.27;108601;1282;23038;-79
2021/11/13 07:37:21;;;;;;;83.40;53.50;;;;;;;4.96;78.61;100629.12;108715;1282;23631;-80
2021/11/13 07:39:53;;;;;;;86.10;53.60;;;;;;;4.96;78.51;100628.29;108473;1282;22005;-78
2021/11/13 07:42:22;;;;;;;84.30;57.30;;;;;;;4.94;78.55;100623.31;108428;1285;23008;-79
2021/11/13 07:44:51;;;;;;;93.20;60.20;;;;;;;4.96;78.71;100620.95;108371;1285;22023;-79
2021/11/13 07:47:21;;;;;;;80.60;55.60;;;;;;;4.96;78.50;100619.23;108080;1289;23662;-79
2021/11/13 07:49:53;;;;;;;84.70;55.80;;;;;;;4.94;78.54;100619.37;107489;1295;22001;-82
2021/11/13 07:52:23;;;;;;;100.70;61.70;;;;;;;4.96;78.69;100615.67;107822;1294;22063;-79
2021/11/13 07:54:52;;;;;;;97.40;62.40;;;;;;;4.99;78.74;100613.55;107841;1293;22013;-78
2021/11/13 07:57:21;;;;;;;85.10;58.60;;;;;;;5.00;78.55;100613.83;107538;1295;22018;-78
2021/11/13 07:59:53;;;;;;;78.40;54.70;;;;;;;5.01;78.46;100612.38;107442;1297;23810;-78
2021/11/13 08:02:25;;;;;;;74.70;53.70;;;;;;;5.00;78.31;100609.64;107530;1297;23163;-79
2021/11/13 08:04:54;;;;;;;82.80;55.60;;;;;;;5.00;78.49;100611.16;107429;1291;22057;-79
2021/11/13 08:07:23;;;;;;;80.90;55.90;;;;;;;5.00;78.36;100608.04;108015;1285;23090;-79
2021/11/13 08:09:53;;;;;;;85.50;57.20;;;;;;;5.02;78.42;100605.66;108436;1282;22856;-78
2021/11/13 08:12:48;;;;;;;91.00;58.30;;;;;;;5.04;78.43;100606.64;108639;1283;22981;-81
2021/11/13 08:16:06;;;;;;;92.70;61.40;;;;;;;5.07;78.57;100602.17;108677;1283;22003;-80
2021/11/13 08:18:36;;;;;;;106.60;64.30;;;;;;;5.12;78.66;100598.83;108369;1283;22098;-79
2021/11/13 08:21:11;;;;;;;91.90;57.40;;;;;;;5.22;78.61;100599.11;108455;1283;23004;-81
2021/11/13 08:23:43;;;;;;;91.40;58.70;;;;;;;5.26;78.38;100603.08;108587;1282;22012;-79
2021/11/13 08:26:12;;;;;;;91.80;59.70;;;;;;;5.28;78.23;100600.15;108394;1283;23726;-80
2021/11/13 08:28:43;;;;;;;83.40;55.20;;;;;;;5.33;78.25;100601.98;108457;1283;21995;-80
2021/11/13 08:31:13;;;;;;;79.80;56.70;;;;;;;5.37;78.18;100605.34;108298;1288;22371;-79
2021/11/13 08:33:54;;;;;;;94.00;59.20;;;;;;;5.42;78.13;100607.35;108067;1289;22044;-79
2021/11/13 08:36:31;;;;;;;138.30;83.40;;;;;;;5.52;78.29;100603.78;108567;1289;23696;-79
2021/11/13 08:39:02;;;;;;;252.90;132.10;;;;;;;5.61;78.18;100605.04;108027;1289;21999;-79
2021/11/13 08:41:36;;;;;;;125.80;73.90;;;;;;;5.68;77.88;100601.30;107805;1288;21971;-79
2021/11/13 08:44:19;;;;;;;100.30;61.90;;;;;;;5.69;77.48;100609.14;107626;1291;22036;-80
2021/11/13 08:47:09;;;;;;;87.30;58.40;;;;;;;5.69;77.33;100614.19;108167;1291;22051;-84
2021/11/13 08:50:12;;;;;;;80.70;53.20;;;;;;;5.70;77.22;100610.58;108210;1288;22002;-79
2021/11/13 08:53:24;;;;;;;89.20;59.40;;;;;;;5.77;77.42;100609.84;108246;1285;22007;-79
2021/11/13 08:56:17;;;;;;;93.10;57.80;;;;;;;5.83;77.02;100605.67;108010;1291;23068;-80
2021/11/13 08:59:08;;;;;;;88.40;61.50;;;;;;;5.83;76.89;100607.92;108268;1290;22043;-80
2021/11/13 09:02:11;;;;;;;76.40;54.60;;;;;;;5.84;76.68;100613.45;108152;1285;21997;-79
2021/11/13 09:04:54;;;;;;;73.50;53.60;;;;;;;5.84;76.51;100616.59;108609;1283;22406;-80
2021/11/13 09:07:24;;;;;;;76.00;54.40;;;;;;;5.82;76.45;100615.48;108454;1285;23587;-79
2021/11/13 09:09:54;;;;;;;67.50;49.90;;;;;;;5.85;76.51;100612.84;108726;1284;21989;-80
2021/11/13 09:12:27;;;;;;;77.80;55.90;;;;;;;5.88;76.53;100613.57;108168;1288;22121;-78
2021/11/13 09:15:07;;;;;;;75.50;53.10;;;;;;;5.91;76.27;100614.27;108278;1285;22096;-79
2021/11/13 09:17:46;;;;;;;71.30;53.60;;;;;;;5.90;76.24;100608.01;108608;1285;22074;-80
2021/11/13 09:20:20;;;;;;;80.90;56.60;;;;;;;5.97;76.48;100610.96;108525;1285;21995;-79
2021/11/13 09:22:53;;;;;;;70.10;51.50;;;;;;;6.03;76.37;100607.67;108379;1289;22689;-80
2021/11/13 09:25:23;;;;;;;70.50;52.30;;;;;;;6.08;76.24;100607.91;108016;1294;21992;-80
2021/11/13 09:27:54;;;;;;;73.60;54.90;;;;;;;6.15;76.28;100610.11;107717;1297;23775;-79
2021/11/13 09:30:28;;;;;;;85.40;57.90;;;;;;;6.23;76.18;100606.29;107522;1294;22769;-79
2021/11/13 09:32:59;;;;;;;72.40;53.70;;;;;;;6.27;75.79;100607.49;108062;1294;22473;-80
2021/11/13 09:35:30;;;;;;;71.30;55.90;;;;;;;6.28;75.60;100608.10;107922;1294;23088;-80
2021/11/13 09:38:24;;;;;;;75.80;57.90;;;;;;;6.29;75.52;100603.43;107956;1294;22042;-80
2021/11/13 09:40:57;;;;;;;70.00;52.60;;;;;;;6.36;75.71;100599.55;108058;1291;22061;-80
2021/11/13 09:43:28;;;;;;;68.80;52.50;;;;;;;6.42;75.53;100597.58;107987;1285;22002;-79
2021/11/13 09:46:02;;;;;;;77.00;55.60;;;;;;;6.47;75.33;100594.23;108235;1285;25164;-79
2021/11/13 09:48:33;;;;;;;68.40;51.10;;;;;;;6.49;75.06;100594.86;108457;1285;22046;-80
2021/11/13 09:51:04;;;;;;;70.80;52.50;;;;;;;6.50;74.81;100591.80;108105;1288;23659;-79
2021/11/13 09:53:34;;;;;;;71.90;52.40;;;;;;;6.50;74.71;100590.11;108140;1286;21992;-80
2021/11/13 09:56:05;;;;;;;70.50;53.60;;;;;;;6.50;74.68;100592.23;108164;1286;22449;-78
2021/11/13 09:58:35;;;;;;;72.20;53.50;;;;;;;6.54;74.74;100592.46;108316;1286;23792;-78
2021/11/13 10:01:05;;;;;;;74.20;54.50;;;;;;;6.57;74.62;100587.86;107942;1289;22571;-81
2021/11/13 10:03:38;;;;;;;65.70;51.20;;;;;;;6.63;74.61;100589.44;107616;1297;23062;-79
2021/11/13 10:06:13;;;;;;;74.20;53.60;;;;;;;6.65;74.26;100597.30;107709;1294;22006;-80
2021/11/13 10:08:47;;;;;;;71.10;52.00;;;;;;;6.65;74.19;100593.44;107866;1295;22248;-81
2021/11/13 10:11:27;;;;;;;67.10;51.60;;;;;;;6.69;74.33;100586.60;107200;1297;22130;-82
2021/11/13 10:14:00;;;;;;;76.10;57.00;;;;;;;6.79;74.61;100581.55;107435;1297;23098;-82
2021/11/13 10:16:35;;;;;;;71.30;57.80;;;;;;;6.91;74.58;100584.34;107473;1297;23379;-76
2021/11/13 10:19:19;;;;;;;70.20;52.20;;;;;;;7.07;74.64;100583.27;107560;1295;22091;-76
2021/11/13 10:21:57;;;;;;;68.40;51.80;;;;;;;7.21;74.27;100585.92;107812;1291;22011;-75
2021/11/13 10:24:28;;;;;;;65.20;49.00;;;;;;;7.30;73.82;100584.79;107439;1296;22946;-76
2021/11/13 10:27:05;;;;;;;66.70;49.90;;;;;;;7.39;73.60;100582.92;107933;1291;23011;-76
2021/11/13 10:29:37;;;;;;;65.90;51.10;;;;;;;7.51;73.59;100580.77;108151;1286;22553;-77
2021/11/13 10:32:17;;;;;;;65.40;48.10;;;;;;;7.68;73.76;100581.09;108211;1288;22001;-75
2021/11/13 10:34:51;;;;;;;71.30;54.50;;;;;;;7.83;73.15;100581.98;108012;1288;24039;-75
2021/11/13 10:37:24;;;;;;;57.50;46.20;;;;;;;7.89;72.42;100578.92;108137;1286;21999;-75
2021/11/13 10:40:00;;;;;;;62.00;49.10;;;;;;;7.89;71.84;100573.66;108097;1285;21995;-75
2021/11/13 10:42:32;;;;;;;62.20;49.20;;;;;;;7.92;71.82;100573.39;108209;1285;22763;-76
2021/11/13 10:45:02;;;;;;;60.10;47.10;;;;;;;7.99;71.88;100576.73;108351;1285;24475;-75
2021/11/13 10:47:38;;;;;;;61.80;49.70;;;;;;;8.14;72.31;100574.13;108358;1285;21992;-74
2021/11/13 10:50:41;;;;;;;57.80;46.60;;;;;;;8.41;72.90;100578.87;108409;1285;21973;-76
2021/11/13 10:53:12;;;;;;;58.80;46.60;;;;;;;8.68;71.88;100566.77;108015;1289;22458;-75
2021/11/13 10:56:12;;;;;;;57.70;47.90;;;;;;;8.80;70.61;100564.38;107968;1289;23184;-76
2021/11/13 10:58:52;;;;;;;66.50;51.50;;;;;;;8.79;69.13;100564.98;108181;1287;22077;-76
2021/11/13 11:01:40;;;;;;;57.40;48.40;;;;;;;8.79;68.64;100561.90;108277;1286;21996;-76
2021/11/13 11:04:16;;;;;;;61.20;48.00;;;;;;;8.72;67.86;100563.45;108385;1285;23009;-76
2021/11/13 11:06:52;;;;;;;58.70;50.00;;;;;;;8.62;67.73;100561.84;108421;1284;23639;-75
2021/11/13 11:09:31;;;;;;;59.50;48.00;;;;;;;8.57;68.03;100560.92;108397;1285;22992;-76
2021/11/13 11:12:10;;;;;;;60.10;49.20;;;;;;;8.61;68.52;100558.41;108428;1285;21993;-76
2021/11/13 11:14:44;;;;;;;59.90;47.90;;;;;;;8.68;68.74;100557.32;108411;1285;22315;-76
2021/11/13 11:17:20;;;;;;;55.50;45.40;;;;;;;8.75;68.37;100555.07;108413;1284;22280;-76
2021/11/13 11:19:52;;;;;;;59.20;46.60;;;;;;;8.76;68.18;100546.04;108647;1285;22997;-75
2021/11/13 11:22:24;;;;;;;59.90;45.70;;;;;;;8.78;67.96;100548.43;108420;1285;23704;-75
2021/11/13 11:25:00;;;;;;;57.90;45.30;;;;;;;8.80;67.77;100553.71;108440;1285;21986;-76
2021/11/13 11:27:34;;;;;;;54.60;45.80;;;;;;;8.80;67.74;100555.80;108329;1285;21993;-77
2021/11/13 11:30:23;;;;;;;58.20;47.20;;;;;;;8.81;67.76;100556.38;108772;1278;23102;-76